createdAt,value
2023-05-02T00:04:23.627Z,56.75
2023-05-02T00:09:46.199Z,57.26
2023-05-02T00:15:08.596Z,57.65
2023-05-02T00:20:31.641Z,57.96
2023-05-02T00:25:57.759Z,58.47
2023-05-02T00:31:20.259Z,59.22
2023-05-02T00:36:43.329Z,60.20
2023-05-02T00:42:12.147Z,60.39
2023-05-02T00:47:34.645Z,61.65
2023-05-02T00:52:57.478Z,61.14
2023-05-02T00:58:25.902Z,60.68
2023-05-02T01:04:24.917Z,60.39
2023-05-02T01:10:25.094Z,60.04
2023-05-02T01:15:49.366Z,58.82
2023-05-02T01:21:15.826Z,58.71
2023-05-02T01:27:09.012Z,58.54
2023-05-02T01:32:35.020Z,58.42
2023-05-02T01:38:09.028Z,59.23
2023-05-02T01:43:34.365Z,57.92
2023-05-02T01:48:58.369Z,57.50
2023-05-02T01:54:23.819Z,58.35
2023-05-02T01:59:48.801Z,59.09
2023-05-02T02:05:12.587Z,59.63
2023-05-02T02:10:36.930Z,60.20
2023-05-02T02:16:04.247Z,60.92
2023-05-02T02:21:29.840Z,62.84
2023-05-02T02:26:53.839Z,62.86
2023-05-02T02:32:16.484Z,62.66
2023-05-02T02:37:48.534Z,62.78
2023-05-02T02:43:33.849Z,63.54
2023-05-02T02:49:13.073Z,63.52
2023-05-02T02:54:45.835Z,61.57
2023-05-02T03:00:26.111Z,60.97
2023-05-02T03:05:50.075Z,62.00
2023-05-02T03:11:12.364Z,64.09
2023-05-02T03:16:54.222Z,66.52
2023-05-02T03:22:17.145Z,66.44
2023-05-02T03:27:40.945Z,67.02
2023-05-02T03:33:05.140Z,67.40
2023-05-02T03:38:28.329Z,67.51
2023-05-02T03:43:51.123Z,68.69
2023-05-02T03:49:13.979Z,69.03
2023-05-02T03:54:38.228Z,69.17
2023-05-02T04:00:01.178Z,68.43
2023-05-02T04:05:24.006Z,68.84
2023-05-02T04:10:46.672Z,68.39
2023-05-02T04:16:09.136Z,68.17
2023-05-02T04:21:32.253Z,68.78
2023-05-02T04:26:54.605Z,68.75
2023-05-02T04:32:17.759Z,69.30
2023-05-02T04:37:40.108Z,69.30
2023-05-02T04:43:02.348Z,69.39
2023-05-02T04:48:25.861Z,69.65
2023-05-02T04:53:48.159Z,69.92
2023-05-02T04:59:10.655Z,70.12
2023-05-02T05:04:32.913Z,70.34
2023-05-02T05:09:55.161Z,71.60
2023-05-02T05:15:17.594Z,73.67
2023-05-02T05:20:39.981Z,76.50
2023-05-02T05:26:02.239Z,77.98
2023-05-02T05:31:28.261Z,76.52
2023-05-02T05:36:52.840Z,74.17
2023-05-02T05:42:15.085Z,72.50
2023-05-02T05:47:40.525Z,72.01
2023-05-02T05:53:03.326Z,70.38
2023-05-02T05:58:26.199Z,68.18
2023-05-02T06:03:48.728Z,67.09
2023-05-02T06:09:12.235Z,67.48
2023-05-02T06:14:34.867Z,67.74
2023-05-02T06:19:57.443Z,67.94
2023-05-02T06:25:21.624Z,68.03
2023-05-02T06:30:44.105Z,67.20
2023-05-02T06:36:08.395Z,66.73
2023-05-02T06:41:34.107Z,66.46
2023-05-02T06:46:56.459Z,65.90
2023-05-02T06:52:18.734Z,64.45
2023-05-02T06:57:41.782Z,64.30
2023-05-02T07:03:05.738Z,64.30
2023-05-02T07:08:30.214Z,63.98
2023-05-02T07:13:52.487Z,64.12
2023-05-02T07:19:15.165Z,65.01
2023-05-02T07:24:37.560Z,64.71
2023-05-02T07:30:00.320Z,64.20
2023-05-02T07:35:23.413Z,63.49
2023-05-02T07:40:47.251Z,62.59
2023-05-02T07:46:12.860Z,60.68
2023-05-02T07:51:35.206Z,58.82
2023-05-02T07:56:59.776Z,58.12
2023-05-02T08:02:23.795Z,57.54
2023-05-02T08:07:46.957Z,56.95
2023-05-02T08:13:09.200Z,56.40
2023-05-02T08:18:32.098Z,55.42
2023-05-02T08:23:54.920Z,54.77
2023-05-02T08:29:17.267Z,53.46
2023-05-02T08:34:39.736Z,52.97
2023-05-02T08:40:03.091Z,51.38
2023-05-02T08:45:27.990Z,49.21
2023-05-02T08:50:52.664Z,45.64
2023-05-02T08:56:15.858Z,44.45
2023-05-02T09:01:40.625Z,44.81
2023-05-02T09:07:03.314Z,43.73
2023-05-02T09:12:27.853Z,43.37
2023-05-02T09:17:53.761Z,40.84
2023-05-02T09:23:16.381Z,39.51
2023-05-02T09:28:50.033Z,38.97
2023-05-02T09:34:26.503Z,37.19
2023-05-02T09:39:48.795Z,37.19
2023-05-02T09:45:11.340Z,38.10
2023-05-02T09:50:45.183Z,37.53
2023-05-02T09:56:26.135Z,37.92
2023-05-02T10:01:49.010Z,37.69
2023-05-02T10:07:15.024Z,35.64
2023-05-02T10:12:41.151Z,36.76
2023-05-02T10:18:06.471Z,36.38
2023-05-02T10:23:31.613Z,33.68
2023-05-02T10:28:54.999Z,32.71
2023-05-02T10:34:19.415Z,32.61
2023-05-02T10:39:42.513Z,33.21
2023-05-02T10:45:06.390Z,31.69
2023-05-02T10:50:29.488Z,32.78
2023-05-02T10:55:52.982Z,34.09
2023-05-02T11:01:38.016Z,36.05
2023-05-02T11:07:23.863Z,35.08
2023-05-02T11:13:06.943Z,35.02
2023-05-02T11:18:29.748Z,34.88
2023-05-02T11:23:51.992Z,34.06
2023-05-02T11:29:14.230Z,34.59
2023-05-02T11:34:39.548Z,35.39
2023-05-02T11:40:03.482Z,35.96
2023-05-02T11:45:27.009Z,35.57
2023-05-02T11:50:58.107Z,36.49
2023-05-02T11:56:21.563Z,37.38
2023-05-02T12:01:43.808Z,38.48
2023-05-02T12:07:18.345Z,39.73
2023-05-02T12:12:41.444Z,39.65
2023-05-02T12:18:05.365Z,39.21
2023-05-02T12:23:28.714Z,38.59
2023-05-02T12:29:03.098Z,38.29
2023-05-02T12:34:41.561Z,39.11
2023-05-02T12:40:04.220Z,38.68
2023-05-02T12:45:37.553Z,38.83
2023-05-02T12:51:01.612Z,44.02
2023-05-02T12:56:25.129Z,46.62
2023-05-02T13:01:47.404Z,46.42
2023-05-02T13:07:10.095Z,48.08
2023-05-02T13:12:33.757Z,49.86
2023-05-02T13:17:57.752Z,50.05
2023-05-02T13:23:20.348Z,49.83
2023-05-02T13:28:42.733Z,50.50
2023-05-02T13:34:05.386Z,50.54
2023-05-02T13:39:27.942Z,51.85
2023-05-02T13:44:50.274Z,52.46
2023-05-02T13:50:13.213Z,51.97
2023-05-02T13:55:36.214Z,50.22
2023-05-02T14:00:58.685Z,49.88
2023-05-02T14:06:21.030Z,48.80
2023-05-02T14:11:44.667Z,51.12
2023-05-02T14:17:08.262Z,52.84
2023-05-02T14:22:30.840Z,54.05
2023-05-02T14:27:53.637Z,54.31
2023-05-02T14:33:16.191Z,53.98
2023-05-02T14:38:38.614Z,53.94
2023-05-02T14:44:01.634Z,53.87
2023-05-02T14:49:25.533Z,53.52
2023-05-02T14:54:48.513Z,54.46
2023-05-02T15:00:11.424Z,55.23
2023-05-02T15:05:34.252Z,56.07
2023-05-02T15:10:59.082Z,55.74
2023-05-02T15:16:22.494Z,55.62
2023-05-02T15:21:44.936Z,56.18
2023-05-02T15:27:07.382Z,56.55
2023-05-02T15:32:31.010Z,56.34
2023-05-02T15:37:54.070Z,55.99
2023-05-02T15:43:16.338Z,55.99
2023-05-02T15:48:42.731Z,56.41
2023-05-02T15:54:06.665Z,56.02
2023-05-02T15:59:29.009Z,56.03
2023-05-02T16:04:51.398Z,55.04
2023-05-02T16:10:14.681Z,52.25
2023-05-02T16:15:37.184Z,48.22
2023-05-02T16:21:00.459Z,50.41
2023-05-02T16:26:22.763Z,50.64
2023-05-02T16:31:45.047Z,53.48
2023-05-02T16:37:07.367Z,54.73
2023-05-02T16:42:29.741Z,51.03
2023-05-02T16:47:53.060Z,50.96
2023-05-02T16:53:16.335Z,51.32
2023-05-02T16:58:40.710Z,52.00
2023-05-02T17:04:02.987Z,53.63
2023-05-02T17:09:25.706Z,54.46
2023-05-02T17:14:48.013Z,54.78
2023-05-02T17:20:12.088Z,54.26
2023-05-02T17:25:34.896Z,52.04
2023-05-02T17:30:58.787Z,51.29
2023-05-02T17:36:21.192Z,51.72
2023-05-02T17:41:43.865Z,52.27
2023-05-02T17:47:06.780Z,52.37
2023-05-02T17:52:29.548Z,53.53
2023-05-02T17:57:52.554Z,53.87
2023-05-02T18:03:15.523Z,54.09
2023-05-02T18:08:38.036Z,54.41
2023-05-02T18:14:01.992Z,55.01
2023-05-02T18:19:24.324Z,55.42
2023-05-02T18:24:46.707Z,55.66
2023-05-02T18:30:09.633Z,55.61
2023-05-02T18:35:31.870Z,56.41
2023-05-02T18:40:54.682Z,56.64
2023-05-02T18:46:17.155Z,57.30
2023-05-02T18:51:39.505Z,57.89
2023-05-02T18:57:03.308Z,57.60
2023-05-02T19:02:28.049Z,57.71
2023-05-02T19:07:50.861Z,57.31
2023-05-02T19:13:14.701Z,56.38
2023-05-02T19:18:37.109Z,56.46
2023-05-02T19:24:00.237Z,56.64
2023-05-02T19:29:22.531Z,56.72
2023-05-02T19:34:45.072Z,57.11
2023-05-02T19:40:07.482Z,57.60
2023-05-02T19:45:30.008Z,57.97
2023-05-02T19:50:52.327Z,58.21
2023-05-02T19:56:15.349Z,58.42
2023-05-02T20:01:38.257Z,58.26
2023-05-02T20:07:01.705Z,58.14
2023-05-02T20:12:24.073Z,57.94
2023-05-02T20:17:46.408Z,57.53
2023-05-02T20:23:08.742Z,57.29
2023-05-02T20:28:31.183Z,57.03
2023-05-02T20:33:53.403Z,56.34
2023-05-02T20:39:16.292Z,55.83
2023-05-02T20:44:39.455Z,54.98
2023-05-02T20:50:02.445Z,54.87
2023-05-02T20:55:26.510Z,54.67
2023-05-02T21:00:50.544Z,54.67
2023-05-02T21:06:14.529Z,54.88
2023-05-02T21:11:37.494Z,54.97
2023-05-02T21:17:00.460Z,55.03
2023-05-02T21:22:22.765Z,54.94
2023-05-02T21:27:45.359Z,54.81
2023-05-02T21:33:07.957Z,55.02
2023-05-02T21:38:31.092Z,54.92
2023-05-02T21:43:55.325Z,55.15
2023-05-02T21:49:18.276Z,54.97
2023-05-02T21:54:40.857Z,55.24
2023-05-02T22:00:05.809Z,55.42
2023-05-02T22:05:29.352Z,55.64
2023-05-02T22:10:53.479Z,55.89
2023-05-02T22:16:16.470Z,55.77
2023-05-02T22:21:39.259Z,56.05
2023-05-02T22:27:03.138Z,55.78
2023-05-02T22:32:27.150Z,55.81
2023-05-02T22:37:50.333Z,56.11
2023-05-02T22:43:13.551Z,56.36
2023-05-02T22:48:37.221Z,57.05
2023-05-02T22:54:00.190Z,57.19
2023-05-02T22:59:23.540Z,57.67
2023-05-02T23:04:46.785Z,58.31
2023-05-02T23:10:09.710Z,59.04
2023-05-02T23:15:32.241Z,59.41
2023-05-02T23:20:55.030Z,60.43
2023-05-02T23:26:19.057Z,61.95
2023-05-02T23:31:42.613Z,63.38
2023-05-02T23:37:07.188Z,64.58
2023-05-02T23:42:30.005Z,65.07
2023-05-02T23:47:52.715Z,65.38
2023-05-02T23:53:15.108Z,65.90
2023-05-02T23:58:37.906Z,66.68
